Time;durP1;ratioP1;P1;durP2;ratioP2;P2;SDS_P1;SDS_P2;PMS_P1;PMS_P2;Temp;Humidity;BMP_temperature;BMP_pressure;BME280_temperature;BME280_humidity;BME280_pressure;Samples;Min_cycle;Max_cycle;Signal;HPM_P1;HPM_P2
2021/05/29 00:00:51;;;;;;;23.42;8.55;;;;;;;;;;5075690;28;20511;-56
2021/05/29 00:03:17;;;;;;;33.20;11.10;;;;;;;;;;5075818;28;20017;-55
2021/05/29 00:05:46;;;;;;;31.52;10.10;;;;;;;;;;5075926;28;20021;-55
2021/05/29 00:08:13;;;;;;;51.95;18.42;;;;;;;;;;5075617;28;20065;-55
2021/05/29 00:10:40;;;;;;;25.55;11.88;;;;;;;;;;5075633;28;20024;-56
2021/05/29 00:13:06;;;;;;;18.60;10.27;;;;;;;;;;5057444;28;20079;-55
2021/05/29 00:15:33;;;;;;;25.65;9.63;;;;;;;;;;5075784;28;20468;-55
2021/05/29 00:17:59;;;;;;;16.50;8.50;;;;;;;;;;5075439;28;20361;-55
2021/05/29 00:20:25;;;;;;;5.82;4.15;;;;;;;;;;5057635;28;20032;-55
2021/05/29 00:22:51;;;;;;;16.08;5.93;;;;;;;;;;5075507;28;20028;-55
2021/05/29 00:25:18;;;;;;;7.13;3.63;;;;;;;;;;5075213;28;20035;-55
2021/05/29 00:27:44;;;;;;;18.40;9.50;;;;;;;;;;5075175;28;20028;-55
2021/05/29 00:30:11;;;;;;;22.83;12.60;;;;;;;;;;5075204;28;20392;-50
2021/05/29 00:32:40;;;;;;;35.05;20.48;;;;;;;;;;5075274;28;20559;-52
2021/05/29 00:35:07;;;;;;;15.05;10.35;;;;;;;;;;5075308;28;20115;-55
2021/05/29 00:37:33;;;;;;;9.73;5.25;;;;;;;;;;5074744;28;20110;-55
2021/05/29 00:39:59;;;;;;;4.60;2.65;;;;;;;;;;5058712;28;20786;-50
2021/05/29 00:42:26;;;;;;;11.25;5.25;;;;;;;;;;5046964;28;20029;-51
2021/05/29 00:44:57;;;;;;;8.68;6.00;;;;;;;;;;5047505;28;20028;-49
2021/05/29 00:47:26;;;;;;;13.43;5.15;;;;;;;;;;5047134;28;20024;-52
2021/05/29 00:49:53;;;;;;;8.15;4.20;;;;;;;;;;5046971;28;20063;-51
2021/05/29 00:52:20;;;;;;;8.20;4.57;;;;;;;;;;5047198;28;20118;-50
2021/05/29 00:54:48;;;;;;;4.70;3.20;;;;;;;;;;5046933;28;20128;-52
2021/05/29 00:57:15;;;;;;;3.97;2.70;;;;;;;;;;5046940;28;20428;-54
2021/05/29 00:59:42;;;;;;;4.97;2.72;;;;;;;;;;5046776;28;20491;-52
2021/05/29 01:02:09;;;;;;;12.35;7.07;;;;;;;;;;5046417;28;20032;-55
2021/05/29 01:04:35;;;;;;;22.63;13.23;;;;;;;;;;5046695;28;20033;-55
2021/05/29 01:07:01;;;;;;;6.38;4.03;;;;;;;;;;5046859;28;20021;-52
2021/05/29 01:09:30;;;;;;;9.65;5.07;;;;;;;;;;5047188;28;20335;-55
2021/05/29 01:11:56;;;;;;;9.10;5.82;;;;;;;;;;5046945;28;20090;-52
2021/05/29 01:14:23;;;;;;;10.45;4.95;;;;;;;;;;5046920;28;20044;-56
2021/05/29 01:16:58;;;;;;;11.02;7.10;;;;;;;;;;5049712;28;20021;-56
2021/05/29 01:19:25;;;;;;;14.68;7.88;;;;;;;;;;5054562;28;20104;-56
2021/05/29 01:21:51;;;;;;;15.13;9.50;;;;;;;;;;5054390;28;20033;-57
2021/05/29 01:24:22;;;;;;;32.30;18.00;;;;;;;;;;5054138;28;20028;-57
2021/05/29 01:26:48;;;;;;;36.88;17.17;;;;;;;;;;5054400;28;20032;-58
2021/05/29 01:29:17;;;;;;;17.17;11.60;;;;;;;;;;5054055;28;20456;-57
2021/05/29 01:31:47;;;;;;;22.98;14.70;;;;;;;;;;5054188;28;20510;-58
2021/05/29 01:34:13;;;;;;;15.55;8.60;;;;;;;;;;5036161;28;20087;-57
2021/05/29 01:36:40;;;;;;;10.43;7.35;;;;;;;;;;5054006;28;20029;-58
2021/05/29 01:39:07;;;;;;;29.10;14.10;;;;;;;;;;5054180;28;20025;-57
2021/05/29 01:41:33;;;;;;;10.80;6.35;;;;;;;;;;5053942;28;20105;-58
2021/05/29 01:44:00;;;;;;;26.23;14.50;;;;;;;;;;5053898;28;20104;-57
2021/05/29 01:46:26;;;;;;;18.05;11.07;;;;;;;;;;5053800;28;20510;-57
2021/05/29 01:48:52;;;;;;;54.70;32.33;;;;;;;;;;5053161;28;20059;-57
2021/05/29 01:51:19;;;;;;;43.38;23.10;;;;;;;;;;5053730;28;20053;-57
2021/05/29 01:53:45;;;;;;;13.07;7.55;;;;;;;;;;5053934;28;20082;-57
2021/05/29 01:56:14;;;;;;;21.75;13.57;;;;;;;;;;5053851;28;20104;-57
2021/05/29 01:58:41;;;;;;;13.25;7.75;;;;;;;;;;5053694;28;20046;-57
2021/05/29 02:01:09;;;;;;;12.32;6.63;;;;;;;;;;5053608;28;20033;-57
2021/05/29 02:03:38;;;;;;;18.45;6.80;;;;;;;;;;5053682;28;20028;-57
2021/05/29 02:06:05;;;;;;;7.57;4.78;;;;;;;;;;5053832;28;20082;-57
2021/05/29 02:08:33;;;;;;;5.47;3.63;;;;;;;;;;5053533;28;20029;-57
2021/05/29 02:10:59;;;;;;;6.15;4.18;;;;;;;;;;5053427;28;20024;-57
2021/05/29 02:13:27;;;;;;;6.93;4.75;;;;;;;;;;5053362;28;20068;-56
2021/05/29 02:15:54;;;;;;;3.78;2.95;;;;;;;;;;5053619;28;20025;-56
2021/05/29 02:18:23;;;;;;;6.22;2.83;;;;;;;;;;5053537;28;20021;-56
2021/05/29 02:20:58;;;;;;;2.92;2.60;;;;;;;;;;5053265;28;20028;-56
2021/05/29 02:23:30;;;;;;;4.65;3.45;;;;;;;;;;5053286;28;20040;-57
2021/05/29 02:25:56;;;;;;;;;;;;;;;;;;5053707;28;20485;-54
2021/05/29 02:28:22;;;;;;;4.80;2.65;;;;;;;;;;5053222;28;19980;-57
2021/05/29 02:30:49;;;;;;;5.70;3.88;;;;;;;;;;5053377;28;20052;-56
2021/05/29 02:33:16;;;;;;;4.93;3.25;;;;;;;;;;5053025;28;20025;-57
2021/05/29 02:35:44;;;;;;;7.30;3.38;;;;;;;;;;5053242;28;20032;-57
2021/05/29 02:38:13;;;;;;;5.18;2.55;;;;;;;;;;5053148;28;20056;-57
2021/05/29 02:40:39;;;;;;;3.75;2.72;;;;;;;;;;5053148;28;20031;-57
2021/05/29 02:43:05;;;;;;;5.22;2.60;;;;;;;;;;5053080;28;20023;-57
2021/05/29 02:45:32;;;;;;;8.00;2.88;;;;;;;;;;5053092;28;20389;-57
2021/05/29 02:47:58;;;;;;;4.38;2.30;;;;;;;;;;5053375;28;20028;-57
2021/05/29 02:50:24;;;;;;;6.75;2.50;;;;;;;;;;5052937;28;20029;-58
2021/05/29 02:52:51;;;;;;;4.15;2.40;;;;;;;;;;5052822;28;20056;-58
2021/05/29 02:55:23;;;;;;;3.65;2.67;;;;;;;;;;5052845;28;20033;-57
2021/05/29 02:57:53;;;;;;;5.75;2.90;;;;;;;;;;5052025;28;20053;-57
2021/05/29 03:00:22;;;;;;;8.00;2.75;;;;;;;;;;5055414;28;20021;-57
2021/05/29 03:02:48;;;;;;;2.53;2.30;;;;;;;;;;5057117;28;20445;-57
2021/05/29 03:05:14;;;;;;;4.32;2.83;;;;;;;;;;5056904;28;20031;-57
2021/05/29 03:07:40;;;;;;;4.45;2.65;;;;;;;;;;5056802;28;20101;-57
2021/05/29 03:10:07;;;;;;;3.42;2.60;;;;;;;;;;5056614;28;20067;-57
2021/05/29 03:12:40;;;;;;;3.10;2.25;;;;;;;;;;5057163;28;20021;-57
2021/05/29 03:15:10;;;;;;;4.30;2.70;;;;;;;;;;5056955;28;20037;-58
2021/05/29 03:17:36;;;;;;;4.30;2.75;;;;;;;;;;5056660;28;20049;-58
2021/05/29 03:20:06;;;;;;;6.40;3.03;;;;;;;;;;5056545;28;20025;-58
2021/05/29 03:22:32;;;;;;;3.65;2.22;;;;;;;;;;5056418;28;20488;-57
2021/05/29 03:24:58;;;;;;;3.20;2.25;;;;;;;;;;5056667;28;20033;-58
2021/05/29 03:27:25;;;;;;;6.78;2.72;;;;;;;;;;5056613;28;20461;-56
2021/05/29 03:29:51;;;;;;;3.13;2.60;;;;;;;;;;5056607;28;20411;-57
2021/05/29 03:32:17;;;;;;;4.03;2.53;;;;;;;;;;5056486;28;20075;-56
2021/05/29 03:34:46;;;;;;;5.03;2.70;;;;;;;;;;5056545;28;20388;-57
2021/05/29 03:37:12;;;;;;;6.28;2.50;;;;;;;;;;5056510;28;20021;-56
2021/05/29 03:39:38;;;;;;;5.38;2.80;;;;;;;;;;5056223;28;20025;-55
2021/05/29 03:42:04;;;;;;;5.13;2.28;;;;;;;;;;5056249;28;20025;-53
2021/05/29 03:44:30;;;;;;;6.22;2.70;;;;;;;;;;5056312;28;20086;-54
2021/05/29 03:46:56;;;;;;;4.32;2.95;;;;;;;;;;5056318;28;20060;-52
2021/05/29 03:49:22;;;;;;;2.47;2.13;;;;;;;;;;5056181;28;20033;-52
2021/05/29 03:51:49;;;;;;;5.13;2.50;;;;;;;;;;5055834;28;20390;-51
2021/05/29 03:54:15;;;;;;;5.32;2.80;;;;;;;;;;5056150;28;20053;-51
2021/05/29 03:56:41;;;;;;;5.22;2.80;;;;;;;;;;5054702;28;20511;-54
2021/05/29 03:59:12;;;;;;;7.53;2.67;;;;;;;;;;5056172;28;20032;-50
2021/05/29 04:01:39;;;;;;;;;;;;;;;;;;5056305;28;20381;-51
2021/05/29 04:04:06;;;;;;;4.45;2.50;;;;;;;;;;5055974;28;19905;-53
2021/05/29 04:06:32;;;;;;;3.35;2.75;;;;;;;;;;5055721;28;20374;-53
2021/05/29 04:08:58;;;;;;;3.95;2.70;;;;;;;;;;5055566;28;20032;-53
2021/05/29 04:11:25;;;;;;;5.18;2.60;;;;;;;;;;5055244;28;20415;-54
2021/05/29 04:13:51;;;;;;;3.22;2.50;;;;;;;;;;5055845;28;20040;-52
2021/05/29 04:16:17;;;;;;;6.40;3.00;;;;;;;;;;5055630;28;20017;-53
2021/05/29 04:18:44;;;;;;;5.20;2.92;;;;;;;;;;5055566;28;20020;-53
2021/05/29 04:21:10;;;;;;;6.38;3.03;;;;;;;;;;5055826;28;20377;-52
2021/05/29 04:23:36;;;;;;;7.72;3.35;;;;;;;;;;5055392;28;20083;-54
2021/05/29 04:26:06;;;;;;;3.55;2.70;;;;;;;;;;5037685;28;20067;-54
2021/05/29 04:28:33;;;;;;;4.80;2.70;;;;;;;;;;5055371;28;20029;-55
2021/05/29 04:30:59;;;;;;;6.70;2.50;;;;;;;;;;5055402;28;20116;-53
2021/05/29 04:33:27;;;;;;;3.53;2.63;;;;;;;;;;5037205;28;20025;-55
2021/05/29 04:35:53;;;;;;;9.48;4.22;;;;;;;;;;5055129;28;20060;-55
2021/05/29 04:38:19;;;;;;;7.65;3.33;;;;;;;;;;5055103;28;20021;-54
2021/05/29 04:40:45;;;;;;;14.02;8.70;;;;;;;;;;5055042;28;20021;-52
2021/05/29 04:43:11;;;;;;;7.32;3.67;;;;;;;;;;5055121;28;20032;-54
2021/05/29 04:45:38;;;;;;;7.05;3.47;;;;;;;;;;5055085;28;20458;-55
2021/05/29 04:48:04;;;;;;;7.57;3.17;;;;;;;;;;5055072;28;20025;-55
2021/05/29 04:50:30;;;;;;;3.70;3.10;;;;;;;;;;5054932;28;20154;-55
2021/05/29 04:52:57;;;;;;;9.95;3.90;;;;;;;;;;5054709;28;20045;-54
2021/05/29 04:55:23;;;;;;;5.68;3.40;;;;;;;;;;5054667;28;20504;-53
2021/05/29 04:57:49;;;;;;;4.57;3.13;;;;;;;;;;5055064;28;20029;-55
2021/05/29 05:00:18;;;;;;;3.20;2.90;;;;;;;;;;5054846;28;20102;-55
2021/05/29 05:02:44;;;;;;;5.43;2.92;;;;;;;;;;5054588;28;20021;-55
2021/05/29 05:05:10;;;;;;;4.38;2.83;;;;;;;;;;5055020;28;20040;-55
2021/05/29 05:07:37;;;;;;;9.75;3.60;;;;;;;;;;5054578;28;20017;-54
2021/05/29 05:10:04;;;;;;;5.93;3.92;;;;;;;;;;5054615;28;20103;-53
2021/05/29 05:12:30;;;;;;;4.82;3.47;;;;;;;;;;5054457;28;20033;-53
2021/05/29 05:14:56;;;;;;;12.60;3.45;;;;;;;;;;5054421;28;20477;-52
2021/05/29 05:17:23;;;;;;;8.95;3.80;;;;;;;;;;5054572;28;20033;-54
2021/05/29 05:19:49;;;;;;;5.80;4.25;;;;;;;;;;5036770;28;20432;-53
2021/05/29 05:22:15;;;;;;;7.88;4.88;;;;;;;;;;5054168;28;20025;-53
2021/05/29 05:24:41;;;;;;;7.93;3.67;;;;;;;;;;5054207;28;20032;-53
2021/05/29 05:27:07;;;;;;;3.58;3.00;;;;;;;;;;5054387;28;20086;-55
2021/05/29 05:29:33;;;;;;;7.72;4.32;;;;;;;;;;5054178;28;20021;-55
2021/05/29 05:31:59;;;;;;;4.95;2.60;;;;;;;;;;5054196;28;20025;-54
2021/05/29 05:34:26;;;;;;;6.13;2.83;;;;;;;;;;5054146;28;20033;-55
2021/05/29 05:36:52;;;;;;;4.25;2.97;;;;;;;;;;5054081;28;20153;-50
2021/05/29 05:39:18;;;;;;;3.40;2.78;;;;;;;;;;5054129;28;20590;-52
2021/05/29 05:41:44;;;;;;;9.95;3.08;;;;;;;;;;5054263;28;20036;-56
2021/05/29 05:44:10;;;;;;;7.35;2.70;;;;;;;;;;5054067;28;20028;-53
2021/05/29 05:46:37;;;;;;;7.38;2.42;;;;;;;;;;5054140;28;20025;-54
2021/05/29 05:49:04;;;;;;;3.08;2.70;;;;;;;;;;5053845;28;20025;-53
2021/05/29 05:51:32;;;;;;;6.68;2.78;;;;;;;;;;5053674;28;20052;-53
2021/05/29 05:54:00;;;;;;;5.97;2.60;;;;;;;;;;5053575;28;20037;-52
2021/05/29 05:56:26;;;;;;;2.95;2.00;;;;;;;;;;5053620;28;20043;-51
2021/05/29 05:58:55;;;;;;;3.95;2.00;;;;;;;;;;5053634;28;20029;-51
2021/05/29 06:01:21;;;;;;;11.90;4.97;;;;;;;;;;5053681;28;20491;-51
2021/05/29 06:03:47;;;;;;;4.55;3.30;;;;;;;;;;5054025;28;20075;-52
2021/05/29 06:06:13;;;;;;;6.45;2.72;;;;;;;;;;5053448;28;20025;-51
2021/05/29 06:08:39;;;;;;;4.07;2.35;;;;;;;;;;5053555;28;20029;-52
2021/05/29 06:11:08;;;;;;;7.28;2.70;;;;;;;;;;5053424;28;20060;-55
2021/05/29 06:19:22;;;;;;;2.80;2.00;;;;;;;;;;4992322;28;20508;-56
2021/05/29 06:21:49;;;;;;;11.52;2.78;;;;;;;;;;4991982;28;20113;-55
2021/05/29 06:24:20;;;;;;;4.80;2.10;;;;;;;;;;4992144;28;20126;-55
2021/05/29 06:26:47;;;;;;;5.65;1.50;;;;;;;;;;4991995;28;20045;-55
2021/05/29 06:29:13;;;;;;;3.45;1.67;;;;;;;;;;4992177;28;20113;-55
2021/05/29 06:31:40;;;;;;;1.63;1.48;;;;;;;;;;4992189;28;20031;-54
2021/05/29 06:34:06;;;;;;;3.60;1.75;;;;;;;;;;4993631;28;20529;-56
2021/05/29 06:36:33;;;;;;;5.47;2.45;;;;;;;;;;4998584;28;20038;-55
2021/05/29 06:38:59;;;;;;;7.88;4.03;;;;;;;;;;4998332;28;20062;-54
2021/05/29 06:41:26;;;;;;;4.20;1.90;;;;;;;;;;4998401;28;20046;-56
2021/05/29 06:43:52;;;;;;;7.40;1.58;;;;;;;;;;4998447;28;20026;-56
2021/05/29 06:46:19;;;;;;;4.07;1.73;;;;;;;;;;4998552;28;20049;-59
2021/05/29 06:48:45;;;;;;;1.92;1.20;;;;;;;;;;4998243;28;20023;-56
2021/05/29 06:51:17;;;;;;;3.90;1.10;;;;;;;;;;4998290;28;20058;-62
2021/05/29 06:53:47;;;;;;;2.75;1.58;;;;;;;;;;5024155;28;20045;-55
2021/05/29 06:58:58;;;;;;;2.83;1.58;;;;;;;;;;5039929;28;20439;-56
2021/05/29 07:01:29;;;;;;;4.75;1.67;;;;;;;;;;5039457;28;20136;-56
2021/05/29 07:03:55;;;;;;;4.53;2.03;;;;;;;;;;5039705;28;20029;-54
2021/05/29 07:06:22;;;;;;;3.75;1.52;;;;;;;;;;5040038;28;20031;-54
2021/05/29 07:08:48;;;;;;;3.40;1.25;;;;;;;;;;5039612;28;20091;-55
2021/05/29 07:11:14;;;;;;;1.90;1.42;;;;;;;;;;5039646;28;20096;-55
2021/05/29 07:13:40;;;;;;;2.40;1.85;;;;;;;;;;5039490;28;20029;-54
2021/05/29 07:16:07;;;;;;;2.78;1.02;;;;;;;;;;5039826;28;20389;-57
2021/05/29 07:18:43;;;;;;;4.82;1.45;;;;;;;;;;5039941;28;20021;-54
2021/05/29 07:21:12;;;;;;;3.92;2.83;;;;;;;;;;5039886;28;20346;-54
2021/05/29 07:23:38;;;;;;;4.32;1.33;;;;;;;;;;5039492;28;20404;-55
2021/05/29 07:26:05;;;;;;;1.63;1.40;;;;;;;;;;5039369;28;20094;-54
2021/05/29 07:28:31;;;;;;;10.10;1.35;;;;;;;;;;5039649;28;20022;-55
2021/05/29 07:30:57;;;;;;;1.85;1.45;;;;;;;;;;5039545;28;20025;-55
2021/05/29 07:33:24;;;;;;;9.57;1.92;;;;;;;;;;5039624;28;20025;-55
2021/05/29 07:35:50;;;;;;;5.35;1.35;;;;;;;;;;5039306;28;20036;-55
2021/05/29 07:38:16;;;;;;;3.22;1.52;;;;;;;;;;5039252;28;20068;-54
2021/05/29 07:40:42;;;;;;;3.67;1.60;;;;;;;;;;5039371;28;20037;-52
2021/05/29 07:43:12;;;;;;;6.32;3.03;;;;;;;;;;5039395;28;20049;-55
2021/05/29 07:45:39;;;;;;;4.72;2.40;;;;;;;;;;5037862;28;20021;-54
2021/05/29 07:48:05;;;;;;;7.70;4.00;;;;;;;;;;5036020;28;20204;-54
2021/05/29 07:50:31;;;;;;;13.40;2.72;;;;;;;;;;5036127;28;20389;-56
2021/05/29 07:52:58;;;;;;;9.63;6.40;;;;;;;;;;5056198;28;20114;-55
2021/05/29 07:55:24;;;;;;;12.52;5.15;;;;;;;;;;5055811;28;20040;-52
2021/05/29 07:57:52;;;;;;;19.05;12.20;;;;;;;;;;5055998;28;20048;-52
2021/05/29 08:00:25;;;;;;;18.33;9.98;;;;;;;;;;5056021;28;20393;-53
2021/05/29 08:02:51;;;;;;;11.07;7.45;;;;;;;;;;5055923;28;20025;-51
2021/05/29 08:05:18;;;;;;;12.15;7.55;;;;;;;;;;5056097;28;20032;-51
2021/05/29 08:07:44;;;;;;;7.30;3.42;;;;;;;;;;5055764;28;20021;-54
2021/05/29 08:10:11;;;;;;;31.15;15.40;;;;;;;;;;5055877;28;20104;-54
2021/05/29 08:12:37;;;;;;;12.48;9.05;;;;;;;;;;5055738;28;20025;-54
2021/05/29 08:15:05;;;;;;;11.43;3.45;;;;;;;;;;5068594;28;20028;-55
2021/05/29 08:17:31;;;;;;;7.53;4.32;;;;;;;;;;5075003;28;20461;-55
2021/05/29 08:19:57;;;;;;;16.88;9.60;;;;;;;;;;5075112;28;20029;-55
2021/05/29 08:22:23;;;;;;;12.25;4.75;;;;;;;;;;5075587;28;20036;-56
2021/05/29 08:24:49;;;;;;;9.48;5.35;;;;;;;;;;5074921;28;20027;-55
2021/05/29 08:27:15;;;;;;;7.45;2.88;;;;;;;;;;5074886;28;20503;-57
2021/05/29 08:29:41;;;;;;;9.20;3.92;;;;;;;;;;5075045;28;20081;-55
2021/05/29 08:32:07;;;;;;;10.38;3.42;;;;;;;;;;5074912;28;20021;-55
2021/05/29 08:34:34;;;;;;;17.42;6.28;;;;;;;;;;5074724;28;20028;-55
2021/05/29 08:37:00;;;;;;;12.90;6.35;;;;;;;;;;5074861;28;20376;-57
2021/05/29 08:39:26;;;;;;;22.15;11.60;;;;;;;;;;5074699;28;20020;-60
2021/05/29 08:41:54;;;;;;;32.15;24.30;;;;;;;;;;5073694;28;20021;-55
2021/05/29 08:44:20;;;;;;;71.20;53.42;;;;;;;;;;5074580;28;20469;-55
2021/05/29 08:46:49;;;;;;;20.92;10.88;;;;;;;;;;5074238;28;20067;-55
2021/05/29 08:49:15;;;;;;;17.15;9.13;;;;;;;;;;5074429;28;20109;-54
2021/05/29 08:51:41;;;;;;;9.88;4.05;;;;;;;;;;5074206;28;20051;-56
2021/05/29 08:54:07;;;;;;;3.03;1.85;;;;;;;;;;5073167;28;20124;-55
2021/05/29 08:56:34;;;;;;;5.38;1.90;;;;;;;;;;5073653;28;20051;-54
2021/05/29 08:59:02;;;;;;;12.75;5.07;;;;;;;;;;5074111;28;20074;-52
2021/05/29 09:01:28;;;;;;;9.15;3.95;;;;;;;;;;5071126;28;20124;-52
2021/05/29 09:03:55;;;;;;;8.45;5.40;;;;;;;;;;5073075;28;20094;-54
2021/05/29 09:06:46;;;;;;;11.00;7.00;;;;;;;;;;5074289;28;20540;-54
2021/05/29 09:09:13;;;;;;;186.18;147.80;;;;;;;;;;4992658;28;20491;-54
2021/05/29 09:11:53;;;;;;;19.67;14.02;;;;;;;;;;4993272;28;20418;-56
2021/05/29 09:14:28;;;;;;;43.67;30.57;;;;;;;;;;4992996;28;20114;-54
2021/05/29 09:17:03;;;;;;;13.95;7.97;;;;;;;;;;4993145;28;20054;-57
2021/05/29 09:19:29;;;;;;;28.92;16.17;;;;;;;;;;4993024;28;20647;-55
2021/05/29 09:21:55;;;;;;;45.33;29.45;;;;;;;;;;4992671;28;20033;-55
2021/05/29 09:24:21;;;;;;;14.20;7.15;;;;;;;;;;4992257;28;20049;-53
2021/05/29 09:26:55;;;;;;;31.48;14.43;;;;;;;;;;4991216;28;20529;-55
2021/05/29 09:29:25;;;;;;;45.90;28.67;;;;;;;;;;4991610;28;20406;-55
2021/05/29 09:31:56;;;;;;;16.85;9.02;;;;;;;;;;4991977;28;20030;-57
2021/05/29 09:34:28;;;;;;;36.13;18.80;;;;;;;;;;4992286;28;20077;-56
2021/05/29 09:37:02;;;;;;;13.15;7.20;;;;;;;;;;4992194;28;20378;-56
2021/05/29 09:39:30;;;;;;;14.40;4.95;;;;;;;;;;4992338;28;20038;-56
2021/05/29 09:41:58;;;;;;;6.13;2.50;;;;;;;;;;4992343;28;20030;-56
2021/05/29 09:44:27;;;;;;;10.30;3.50;;;;;;;;;;4992707;28;20030;-56
2021/05/29 09:46:57;;;;;;;4.72;2.15;;;;;;;;;;5057935;28;20511;-55
2021/05/29 09:49:25;;;;;;;13.83;9.40;;;;;;;;;;5073742;28;20362;-56
2021/05/29 09:51:51;;;;;;;9.55;4.25;;;;;;;;;;5073563;28;20401;-56
2021/05/29 09:54:17;;;;;;;16.35;10.10;;;;;;;;;;5073861;28;20024;-56
2021/05/29 09:56:45;;;;;;;22.25;12.07;;;;;;;;;;5072626;28;20122;-56
2021/05/29 09:59:17;;;;;;;35.50;21.30;;;;;;;;;;5073493;28;20052;-56
2021/05/29 10:01:44;;;;;;;10.43;5.40;;;;;;;;;;5073398;28;20032;-56
2021/05/29 10:04:40;;;;;;;20.95;14.55;;;;;;;;;;5073489;28;20475;-56
2021/05/29 10:07:10;;;;;;;12.15;6.65;;;;;;;;;;5073428;28;20032;-56
2021/05/29 10:09:39;;;;;;;32.55;19.95;;;;;;;;;;5072536;28;20093;-57
2021/05/29 10:12:05;;;;;;;23.42;15.98;;;;;;;;;;5073469;28;20031;-56
2021/05/29 10:14:31;;;;;;;50.05;33.45;;;;;;;;;;5064147;28;20125;-54
2021/05/29 10:17:02;;;;;;;42.50;24.27;;;;;;;;;;5046698;28;20078;-57
2021/05/29 10:19:30;;;;;;;14.75;6.82;;;;;;;;;;5046229;28;20376;-58
2021/05/29 10:21:59;;;;;;;15.57;10.10;;;;;;;;;;5045965;28;20032;-53
2021/05/29 10:24:25;;;;;;;8.88;1.88;;;;;;;;;;5046095;28;20064;-55
2021/05/29 10:26:53;;;;;;;9.75;6.82;;;;;;;;;;5045839;28;20055;-52
2021/05/29 10:29:24;;;;;;;35.15;20.35;;;;;;;;;;5046042;28;20025;-54
2021/05/29 10:31:50;;;;;;;13.25;8.05;;;;;;;;;;5045992;28;20040;-54
2021/05/29 10:34:18;;;;;;;11.07;2.10;;;;;;;;;;5045649;28;20037;-54
2021/05/29 10:36:54;;;;;;;22.98;13.77;;;;;;;;;;5045719;28;20139;-53
2021/05/29 10:39:22;;;;;;;4.55;2.25;;;;;;;;;;5045770;28;20030;-55
2021/05/29 10:41:50;;;;;;;13.23;6.30;;;;;;;;;;5046435;28;20559;-55
2021/05/29 10:44:35;;;;;;;9.90;4.72;;;;;;;;;;5045824;28;20033;-54
2021/05/29 10:47:11;;;;;;;22.50;15.38;;;;;;;;;;5046057;28;20240;-53
2021/05/29 10:49:49;;;;;;;18.75;8.48;;;;;;;;;;5045957;28;20020;-53
2021/05/29 10:52:31;;;;;;;24.92;8.88;;;;;;;;;;5045122;28;20055;-52
2021/05/29 10:55:10;;;;;;;24.50;14.10;;;;;;;;;;5045737;28;20047;-55
2021/05/29 10:57:52;;;;;;;79.38;62.28;;;;;;;;;;5045799;28;20077;-54
2021/05/29 11:00:37;;;;;;;10.20;7.13;;;;;;;;;;5045641;28;20136;-53
2021/05/29 11:03:19;;;;;;;26.55;12.93;;;;;;;;;;5045899;28;20082;-52
2021/05/29 11:05:49;;;;;;;30.25;16.70;;;;;;;;;;5045767;28;20021;-54
2021/05/29 11:08:34;;;;;;;144.48;21.42;;;;;;;;;;5045645;28;20028;-52
2021/05/29 11:11:02;;;;;;;23.73;12.63;;;;;;;;;;5045802;28;20021;-53
2021/05/29 11:13:57;;;;;;;6.25;3.75;;;;;;;;;;5045767;28;20049;-59
2021/05/29 11:16:23;;;;;;;23.42;12.27;;;;;;;;;;5036396;28;20060;-53
2021/05/29 11:19:10;;;;;;;22.77;13.10;;;;;;;;;;5045815;28;20295;-57
2021/05/29 11:21:56;;;;;;;7.13;3.83;;;;;;;;;;5048250;28;20573;-50
2021/05/29 11:24:22;;;;;;;31.48;15.50;;;;;;;;;;5049088;28;20074;-54
2021/05/29 11:26:48;;;;;;;10.23;3.22;;;;;;;;;;5049644;28;20028;-52
2021/05/29 11:29:14;;;;;;;10.95;4.43;;;;;;;;;;5049200;28;20594;-55
2021/05/29 11:31:44;;;;;;;15.40;10.23;;;;;;;;;;5049646;28;20040;-53
2021/05/29 11:34:10;;;;;;;33.10;20.63;;;;;;;;;;5048692;28;20020;-53
2021/05/29 11:36:41;;;;;;;26.13;16.40;;;;;;;;;;5049010;28;20024;-56
2021/05/29 11:39:12;;;;;;;26.23;19.52;;;;;;;;;;5048947;28;20067;-57
2021/05/29 11:41:38;;;;;;;19.02;12.70;;;;;;;;;;5048832;28;20094;-57
2021/05/29 11:44:08;;;;;;;15.77;8.23;;;;;;;;;;5049105;28;20512;-55
2021/05/29 11:46:35;;;;;;;23.48;13.27;;;;;;;;;;5048338;28;20055;-54
2021/05/29 11:49:02;;;;;;;25.30;15.80;;;;;;;;;;5049239;28;20031;-53
2021/05/29 11:51:30;;;;;;;31.30;18.63;;;;;;;;;;5048359;28;20041;-50
2021/05/29 11:53:59;;;;;;;30.67;10.10;;;;;;;;;;5048787;28;20786;-50
2021/05/29 11:56:32;;;;;;;24.67;7.80;;;;;;;;;;5048647;28;20638;-50
2021/05/29 11:58:59;;;;;;;16.58;5.82;;;;;;;;;;5048470;28;20028;-49
2021/05/29 12:01:28;;;;;;;57.00;22.35;;;;;;;;;;5048853;28;20025;-51
2021/05/29 12:03:57;;;;;;;29.48;13.95;;;;;;;;;;5048210;28;20031;-51
2021/05/29 12:06:38;;;;;;;34.83;16.95;;;;;;;;;;5048349;28;20144;-55
2021/05/29 12:09:07;;;;;;;74.85;45.95;;;;;;;;;;5048236;28;20029;-54
2021/05/29 12:11:34;;;;;;;15.27;8.98;;;;;;;;;;5048026;28;20136;-51
2021/05/29 12:14:05;;;;;;;5.38;3.17;;;;;;;;;;5048141;28;20021;-52
2021/05/29 12:16:33;;;;;;;15.90;10.27;;;;;;;;;;5048404;28;20121;-54
2021/05/29 12:18:59;;;;;;;13.63;8.65;;;;;;;;;;5048254;28;20028;-54
2021/05/29 12:21:40;;;;;;;38.53;25.48;;;;;;;;;;5048079;28;20036;-57
2021/05/29 12:24:07;;;;;;;39.95;26.20;;;;;;;;;;5048172;28;20039;-55
2021/05/29 12:26:33;;;;;;;27.13;17.63;;;;;;;;;;5047832;28;20034;-53
2021/05/29 12:28:59;;;;;;;37.50;24.98;;;;;;;;;;5047947;28;20128;-53
2021/05/29 12:31:42;;;;;;;36.72;26.17;;;;;;;;;;5048166;28;20621;-53
2021/05/29 12:34:08;;;;;;;41.22;25.80;;;;;;;;;;5047601;28;20078;-53
2021/05/29 12:36:34;;;;;;;14.45;9.60;;;;;;;;;;5047969;28;20029;-55
2021/05/29 12:39:03;;;;;;;66.75;42.60;;;;;;;;;;5047668;28;20151;-53
2021/05/29 12:41:38;;;;;;;31.10;21.83;;;;;;;;;;5047754;28;20598;-54
2021/05/29 12:44:10;;;;;;;36.33;19.38;;;;;;;;;;5048515;28;20032;-53
2021/05/29 12:46:36;;;;;;;12.90;7.07;;;;;;;;;;5047572;28;20079;-54
2021/05/29 12:49:02;;;;;;;66.60;25.50;;;;;;;;;;5047721;28;20143;-54
2021/05/29 12:51:38;;;;;;;28.33;9.93;;;;;;;;;;5047192;28;20080;-53
2021/05/29 12:54:04;;;;;;;33.22;17.27;;;;;;;;;;5047698;28;20662;-54
2021/05/29 12:56:31;;;;;;;10.48;4.78;;;;;;;;;;5047890;28;20077;-54
2021/05/29 12:59:04;;;;;;;23.50;11.15;;;;;;;;;;5047630;28;20087;-53
2021/05/29 13:01:44;;;;;;;40.03;20.10;;;;;;;;;;5047446;28;20028;-52
2021/05/29 13:10:18;;;;;;;13.35;5.32;;;;;;;;;;5047373;28;20898;-51
2021/05/29 13:13:02;;;;;;;19.45;10.88;;;;;;;;;;5046858;28;21017;-53
2021/05/29 13:15:29;;;;;;;3.75;2.72;;;;;;;;;;5047134;28;20037;-50
2021/05/29 13:18:08;;;;;;;16.90;4.97;;;;;;;;;;5047133;28;20052;-54
2021/05/29 13:20:36;;;;;;;6.00;3.03;;;;;;;;;;5031337;28;21024;-53
2021/05/29 13:23:02;;;;;;;5.97;3.15;;;;;;;;;;5047396;28;20445;-52
2021/05/29 13:25:39;;;;;;;16.13;7.03;;;;;;;;;;5046780;28;20149;-53
2021/05/29 13:28:09;;;;;;;11.05;6.15;;;;;;;;;;5046626;28;20112;-53
2021/05/29 13:30:35;;;;;;;7.10;3.90;;;;;;;;;;5046848;28;20028;-54
2021/05/29 13:33:03;;;;;;;12.00;3.20;;;;;;;;;;5046666;28;20059;-54
2021/05/29 13:35:29;;;;;;;7.38;2.40;;;;;;;;;;5046975;28;20032;-50
2021/05/29 13:37:55;;;;;;;11.13;2.13;;;;;;;;;;5046924;28;20029;-53
2021/05/29 13:40:21;;;;;;;5.68;2.92;;;;;;;;;;5046362;28;20024;-53
2021/05/29 13:42:47;;;;;;;12.45;3.95;;;;;;;;;;5046820;28;20017;-50
2021/05/29 13:45:19;;;;;;;12.20;4.35;;;;;;;;;;5045663;28;20069;-53
2021/05/29 13:47:48;;;;;;;8.38;2.60;;;;;;;;;;5046187;28;20125;-50
2021/05/29 13:50:14;;;;;;;6.97;2.42;;;;;;;;;;5046295;28;20369;-53
2021/05/29 13:52:40;;;;;;;5.25;2.95;;;;;;;;;;5045885;28;20048;-52
2021/05/29 13:55:07;;;;;;;6.53;1.80;;;;;;;;;;5046460;28;21011;-50
2021/05/29 13:57:33;;;;;;;7.05;2.05;;;;;;;;;;5046174;28;20024;-53
2021/05/29 14:00:00;;;;;;;8.18;2.03;;;;;;;;;;5045894;28;20039;-54
2021/05/29 14:02:27;;;;;;;4.60;1.33;;;;;;;;;;5045926;28;20164;-53
2021/05/29 14:04:54;;;;;;;5.13;1.50;;;;;;;;;;5045667;28;20020;-49
2021/05/29 14:07:21;;;;;;;8.32;2.30;;;;;;;;;;5046056;28;20138;-50
2021/05/29 14:09:47;;;;;;;7.90;3.50;;;;;;;;;;5045461;28;20031;-52
2021/05/29 14:12:13;;;;;;;3.65;1.88;;;;;;;;;;5045954;28;20492;-54
2021/05/29 14:14:39;;;;;;;4.03;1.27;;;;;;;;;;5046078;28;20024;-53
2021/05/29 14:17:06;;;;;;;9.15;2.70;;;;;;;;;;5045818;28;20036;-54
2021/05/29 14:19:32;;;;;;;8.23;3.40;;;;;;;;;;5045950;28;20338;-53
2021/05/29 14:21:58;;;;;;;9.90;3.05;;;;;;;;;;5045625;28;20029;-52
2021/05/29 14:24:24;;;;;;;10.75;2.20;;;;;;;;;;5030014;28;20044;-52
2021/05/29 14:26:50;;;;;;;9.80;2.00;;;;;;;;;;5045601;28;20029;-55
2021/05/29 14:29:16;;;;;;;10.40;2.30;;;;;;;;;;5045712;28;20446;-53
2021/05/29 14:31:42;;;;;;;56.25;35.10;;;;;;;;;;5045840;28;20024;-55
2021/05/29 14:34:09;;;;;;;58.85;29.15;;;;;;;;;;5046001;28;20017;-51
2021/05/29 14:36:36;;;;;;;37.28;21.70;;;;;;;;;;5045460;28;20507;-54
2021/05/29 14:39:03;;;;;;;39.58;23.17;;;;;;;;;;5045956;28;20033;-52
2021/05/29 14:41:31;;;;;;;19.13;12.52;;;;;;;;;;5045726;28;20644;-51
2021/05/29 14:43:57;;;;;;;42.60;29.23;;;;;;;;;;5045682;28;20058;-52
2021/05/29 14:46:23;;;;;;;41.85;28.58;;;;;;;;;;5046082;28;20361;-56
2021/05/29 14:48:51;;;;;;;25.92;16.38;;;;;;;;;;5045545;28;20025;-52
2021/05/29 14:51:18;;;;;;;20.63;10.57;;;;;;;;;;5045417;28;20040;-52
2021/05/29 14:53:49;;;;;;;70.43;49.17;;;;;;;;;;5045503;28;20430;-53